createdAt,value
2019-05-03T00:02:12.302Z,33.50
2019-05-03T00:04:37.757Z,33.55
2019-05-03T00:07:04.134Z,33.22
2019-05-03T00:09:31.985Z,33.49
2019-05-03T00:14:23.157Z,33.82
2019-05-03T00:16:49.535Z,33.93
2019-05-03T00:19:16.000Z,34.08
2019-05-03T00:21:42.323Z,34.50
2019-05-03T00:24:08.612Z,34.26
2019-05-03T00:26:34.990Z,34.39
2019-05-03T00:29:02.203Z,34.49
2019-05-03T00:31:27.679Z,34.45
2019-05-03T00:33:54.037Z,34.60
2019-05-03T00:36:22.148Z,34.71
2019-05-03T00:38:46.749Z,34.71
2019-05-03T00:41:13.112Z,34.78
2019-05-03T00:43:39.426Z,34.85
2019-05-03T00:46:05.798Z,34.84
2019-05-03T00:48:32.616Z,35.08
2019-05-03T00:50:58.483Z,35.07
2019-05-03T00:53:24.860Z,35.20
2019-05-03T00:55:52.450Z,35.21
2019-05-03T00:58:17.505Z,35.35
2019-05-03T01:00:43.843Z,35.19
2019-05-03T01:03:10.196Z,35.41
2019-05-03T01:05:36.566Z,35.48
2019-05-03T01:08:02.870Z,35.59
2019-05-03T01:10:29.270Z,35.53
2019-05-03T01:12:55.600Z,35.55
2019-05-03T01:15:21.935Z,35.67
2019-05-03T01:17:48.271Z,35.76
2019-05-03T01:20:14.602Z,35.66
2019-05-03T01:22:42.487Z,35.79
2019-05-03T01:25:07.312Z,35.80
2019-05-03T01:27:33.665Z,35.81
2019-05-03T01:32:26.357Z,35.94
2019-05-03T01:34:52.701Z,36.03
2019-05-03T01:37:19.097Z,36.03
2019-05-03T01:39:45.461Z,36.02
2019-05-03T01:42:12.029Z,36.08
2019-05-03T01:44:38.124Z,36.26
2019-05-03T01:47:04.496Z,36.26
2019-05-03T01:49:32.091Z,36.32
2019-05-03T01:51:57.167Z,36.34
2019-05-03T01:54:23.551Z,36.38
2019-05-03T01:56:56.923Z,36.44
2019-05-03T01:59:16.274Z,36.56
2019-05-03T02:01:42.603Z,36.57
2019-05-03T02:04:09.013Z,36.57
2019-05-03T02:06:35.379Z,36.57
2019-05-03T02:09:01.772Z,36.65
2019-05-03T02:11:28.098Z,36.71
2019-05-03T02:13:54.469Z,36.63
2019-05-03T02:16:21.886Z,36.77
2019-05-03T02:18:47.191Z,36.84
2019-05-03T02:21:13.532Z,36.82
2019-05-03T02:23:39.851Z,36.89
2019-05-03T02:26:06.183Z,36.90
2019-05-03T02:28:32.761Z,36.90
2019-05-03T02:30:58.902Z,36.98
2019-05-03T02:33:25.243Z,37.03
2019-05-03T02:35:53.256Z,37.05
2019-05-03T02:38:17.986Z,37.13
2019-05-03T02:40:44.379Z,37.14
2019-05-03T02:43:10.691Z,37.05
2019-05-03T02:45:37.133Z,37.19
2019-05-03T02:48:05.854Z,37.18
2019-05-03T02:50:29.852Z,37.22
2019-05-03T02:52:56.258Z,37.23
2019-05-03T02:55:22.590Z,37.31
2019-05-03T02:57:48.970Z,37.19
2019-05-03T03:00:16.237Z,37.34
2019-05-03T03:02:41.819Z,37.38
2019-05-03T03:05:08.113Z,37.45
2019-05-03T03:10:00.879Z,37.41
2019-05-03T03:12:27.245Z,37.48
2019-05-03T03:14:55.142Z,37.50
2019-05-03T03:17:19.948Z,37.54
2019-05-03T03:19:46.323Z,37.64
2019-05-03T03:22:12.623Z,37.68
2019-05-03T03:24:38.998Z,37.66
2019-05-03T03:27:05.510Z,37.71
2019-05-03T03:29:31.727Z,37.64
2019-05-03T03:31:58.726Z,37.57
2019-05-03T03:34:28.021Z,37.46
2019-05-03T03:37:00.813Z,37.53
2019-05-03T03:39:17.129Z,37.32
2019-05-03T03:41:45.313Z,37.37
2019-05-03T03:44:09.853Z,37.20
2019-05-03T03:46:36.184Z,37.11
2019-05-03T03:49:02.624Z,37.00
2019-05-03T03:51:28.889Z,37.03
2019-05-03T03:53:55.661Z,36.94
2019-05-03T03:56:21.549Z,36.83
2019-05-03T03:58:47.866Z,36.82
2019-05-03T04:01:15.651Z,36.77
2019-05-03T04:03:40.597Z,36.79
2019-05-03T04:06:06.886Z,36.63
2019-05-03T04:08:35.834Z,36.44
2019-05-03T04:10:59.611Z,36.20
2019-05-03T04:13:25.956Z,36.17
2019-05-03T04:15:52.312Z,36.19
2019-05-03T04:18:18.636Z,35.91
2019-05-03T04:20:45.792Z,35.97
2019-05-03T04:23:11.341Z,35.81
2019-05-03T04:25:37.714Z,35.73
